sensor_id;sensor_type;location;lat;lon;timestamp;P1;durP1;ratioP1;P2;durP2;ratioP2
56239;SDS011;42154;51.992;5.896;2023-02-27T00:02:25;5.13;;;1.33;;
56239;SDS011;42154;51.992;5.896;2023-02-27T00:04:51;5.60;;;1.45;;
56239;SDS011;42154;51.992;5.896;2023-02-27T00:07:18;2.75;;;0.90;;
56239;SDS011;42154;51.992;5.896;2023-02-27T00:09:50;5.47;;;1.23;;
56239;SDS011;42154;51.992;5.896;2023-02-27T00:12:16;6.30;;;1.10;;
56239;SDS011;42154;51.992;5.896;2023-02-27T00:14:42;5.57;;;1.45;;
56239;SDS011;42154;51.992;5.896;2023-02-27T00:17:07;3.50;;;1.10;;
56239;SDS011;42154;51.992;5.896;2023-02-27T00:19:33;4.55;;;1.50;;
56239;SDS011;42154;51.992;5.896;2023-02-27T00:21:59;1.92;;;1.10;;
56239;SDS011;42154;51.992;5.896;2023-02-27T00:24:25;5.43;;;1.40;;
56239;SDS011;42154;51.992;5.896;2023-02-27T00:26:50;3.78;;;1.50;;
56239;SDS011;42154;51.992;5.896;2023-02-27T00:29:16;4.00;;;0.98;;
56239;SDS011;42154;51.992;5.896;2023-02-27T00:31:42;3.35;;;1.00;;
56239;SDS011;42154;51.992;5.896;2023-02-27T00:34:08;4.72;;;1.50;;
56239;SDS011;42154;51.992;5.896;2023-02-27T00:36:34;2.75;;;0.95;;
56239;SDS011;42154;51.992;5.896;2023-02-27T00:39:00;4.93;;;1.10;;
56239;SDS011;42154;51.992;5.896;2023-02-27T00:41:26;4.15;;;1.15;;
56239;SDS011;42154;51.992;5.896;2023-02-27T00:43:52;3.33;;;1.30;;
56239;SDS011;42154;51.992;5.896;2023-02-27T00:46:18;2.38;;;1.30;;
56239;SDS011;42154;51.992;5.896;2023-02-27T00:48:43;5.90;;;1.10;;
56239;SDS011;42154;51.992;5.896;2023-02-27T00:51:09;3.85;;;1.20;;
56239;SDS011;42154;51.992;5.896;2023-02-27T00:53:35;4.50;;;1.30;;
56239;SDS011;42154;51.992;5.896;2023-02-27T00:56:01;1.85;;;0.95;;
56239;SDS011;42154;51.992;5.896;2023-02-27T00:58:27;2.33;;;0.98;;
56239;SDS011;42154;51.992;5.896;2023-02-27T01:00:53;1.95;;;1.02;;
56239;SDS011;42154;51.992;5.896;2023-02-27T01:03:18;3.75;;;1.30;;
56239;SDS011;42154;51.992;5.896;2023-02-27T01:05:45;3.17;;;1.83;;
56239;SDS011;42154;51.992;5.896;2023-02-27T01:08:10;3.72;;;1.48;;
56239;SDS011;42154;51.992;5.896;2023-02-27T01:10:36;3.70;;;1.20;;
56239;SDS011;42154;51.992;5.896;2023-02-27T01:13:05;5.45;;;1.35;;
56239;SDS011;42154;51.992;5.896;2023-02-27T01:15:32;3.78;;;1.35;;
56239;SDS011;42154;51.992;5.896;2023-02-27T01:17:58;5.63;;;1.30;;
56239;SDS011;42154;51.992;5.896;2023-02-27T01:20:24;2.80;;;1.42;;
56239;SDS011;42154;51.992;5.896;2023-02-27T01:22:49;4.00;;;1.02;;
56239;SDS011;42154;51.992;5.896;2023-02-27T01:25:15;3.95;;;1.10;;
56239;SDS011;42154;51.992;5.896;2023-02-27T01:27:41;3.58;;;1.20;;
56239;SDS011;42154;51.992;5.896;2023-02-27T01:30:08;3.97;;;0.90;;
56239;SDS011;42154;51.992;5.896;2023-02-27T01:32:36;3.90;;;1.30;;
56239;SDS011;42154;51.992;5.896;2023-02-27T01:35:02;2.80;;;1.10;;
56239;SDS011;42154;51.992;5.896;2023-02-27T01:37:28;3.17;;;1.00;;
56239;SDS011;42154;51.992;5.896;2023-02-27T01:39:54;4.03;;;1.15;;
56239;SDS011;42154;51.992;5.896;2023-02-27T01:42:25;1.85;;;1.00;;
56239;SDS011;42154;51.992;5.896;2023-02-27T01:45:36;1.23;;;0.85;;
56239;SDS011;42154;51.992;5.896;2023-02-27T01:48:13;2.17;;;1.10;;
56239;SDS011;42154;51.992;5.896;2023-02-27T01:50:45;3.50;;;1.10;;
56239;SDS011;42154;51.992;5.896;2023-02-27T01:53:14;4.95;;;1.00;;
56239;SDS011;42154;51.992;5.896;2023-02-27T01:55:43;3.80;;;1.13;;
56239;SDS011;42154;51.992;5.896;2023-02-27T01:58:12;3.45;;;1.50;;
56239;SDS011;42154;51.992;5.896;2023-02-27T02:00:39;3.83;;;1.23;;
56239;SDS011;42154;51.992;5.896;2023-02-27T02:03:11;4.72;;;1.40;;
56239;SDS011;42154;51.992;5.896;2023-02-27T02:05:54;2.80;;;1.20;;
56239;SDS011;42154;51.992;5.896;2023-02-27T02:08:22;4.60;;;1.63;;
56239;SDS011;42154;51.992;5.896;2023-02-27T02:10:50;2.30;;;1.23;;
56239;SDS011;42154;51.992;5.896;2023-02-27T02:13:19;7.05;;;1.60;;
56239;SDS011;42154;51.992;5.896;2023-02-27T02:15:47;2.88;;;1.45;;
56239;SDS011;42154;51.992;5.896;2023-02-27T02:27:15;3.45;;;1.27;;
56239;SDS011;42154;51.992;5.896;2023-02-27T02:35:54;5.95;;;1.30;;
56239;SDS011;42154;51.992;5.896;2023-02-27T02:52:28;7.47;;;1.92;;
56239;SDS011;42154;51.992;5.896;2023-02-27T02:55:30;3.67;;;1.40;;
56239;SDS011;42154;51.992;5.896;2023-02-27T02:58:00;3.17;;;1.65;;
56239;SDS011;42154;51.992;5.896;2023-02-27T03:00:52;4.03;;;2.15;;
56239;SDS011;42154;51.992;5.896;2023-02-27T03:03:24;3.55;;;1.65;;
56239;SDS011;42154;51.992;5.896;2023-02-27T03:08:47;2.60;;;1.10;;
56239;SDS011;42154;51.992;5.896;2023-02-27T03:11:17;4.38;;;1.50;;
56239;SDS011;42154;51.992;5.896;2023-02-27T03:13:46;3.58;;;1.42;;
56239;SDS011;42154;51.992;5.896;2023-02-27T03:19:27;3.70;;;1.83;;
56239;SDS011;42154;51.992;5.896;2023-02-27T03:22:04;4.68;;;1.88;;
56239;SDS011;42154;51.992;5.896;2023-02-27T03:24:39;4.80;;;1.92;;
56239;SDS011;42154;51.992;5.896;2023-02-27T03:27:08;4.38;;;1.58;;
56239;SDS011;42154;51.992;5.896;2023-02-27T03:29:43;7.25;;;1.70;;
56239;SDS011;42154;51.992;5.896;2023-02-27T03:32:16;4.95;;;1.75;;
56239;SDS011;42154;51.992;5.896;2023-02-27T03:34:47;5.43;;;1.90;;
56239;SDS011;42154;51.992;5.896;2023-02-27T03:45:36;6.22;;;1.75;;
56239;SDS011;42154;51.992;5.896;2023-02-27T03:48:06;2.67;;;1.42;;
56239;SDS011;42154;51.992;5.896;2023-02-27T03:50:34;3.00;;;1.73;;
56239;SDS011;42154;51.992;5.896;2023-02-27T03:53:05;4.47;;;1.73;;
56239;SDS011;42154;51.992;5.896;2023-02-27T03:55:42;5.32;;;1.58;;
56239;SDS011;42154;51.992;5.896;2023-02-27T03:58:11;4.93;;;1.73;;
56239;SDS011;42154;51.992;5.896;2023-02-27T04:00:36;5.05;;;1.40;;
56239;SDS011;42154;51.992;5.896;2023-02-27T04:03:02;3.72;;;1.55;;
56239;SDS011;42154;51.992;5.896;2023-02-27T04:05:30;5.15;;;1.60;;
56239;SDS011;42154;51.992;5.896;2023-02-27T04:27:57;2.80;;;1.17;;
56239;SDS011;42154;51.992;5.896;2023-02-27T04:30:27;2.17;;;1.30;;
56239;SDS011;42154;51.992;5.896;2023-02-27T04:33:12;3.63;;;1.45;;
56239;SDS011;42154;51.992;5.896;2023-02-27T04:35:48;4.60;;;1.73;;
56239;SDS011;42154;51.992;5.896;2023-02-27T04:38:19;4.40;;;2.00;;
56239;SDS011;42154;51.992;5.896;2023-02-27T04:40:53;2.90;;;1.52;;
56239;SDS011;42154;51.992;5.896;2023-02-27T04:43:24;6.20;;;1.40;;
56239;SDS011;42154;51.992;5.896;2023-02-27T04:45:52;2.60;;;1.40;;
56239;SDS011;42154;51.992;5.896;2023-02-27T04:48:25;5.30;;;1.83;;
56239;SDS011;42154;51.992;5.896;2023-02-27T04:50:56;6.00;;;1.85;;
56239;SDS011;42154;51.992;5.896;2023-02-27T04:53:46;3.67;;;1.33;;
56239;SDS011;42154;51.992;5.896;2023-02-27T04:56:30;6.93;;;2.17;;
56239;SDS011;42154;51.992;5.896;2023-02-27T04:59:01;3.65;;;1.65;;
56239;SDS011;42154;51.992;5.896;2023-02-27T05:01:35;2.88;;;1.45;;
56239;SDS011;42154;51.992;5.896;2023-02-27T05:04:05;5.05;;;1.70;;
56239;SDS011;42154;51.992;5.896;2023-02-27T05:06:35;3.55;;;1.02;;
56239;SDS011;42154;51.992;5.896;2023-02-27T05:12:00;4.75;;;1.80;;
56239;SDS011;42154;51.992;5.896;2023-02-27T05:17:08;6.55;;;1.98;;
56239;SDS011;42154;51.992;5.896;2023-02-27T05:19:49;2.92;;;1.77;;
56239;SDS011;42154;51.992;5.896;2023-02-27T05:28:00;4.13;;;1.65;;
56239;SDS011;42154;51.992;5.896;2023-02-27T05:30:33;5.93;;;1.80;;
56239;SDS011;42154;51.992;5.896;2023-02-27T05:33:29;4.63;;;2.22;;
56239;SDS011;42154;51.992;5.896;2023-02-27T05:36:04;4.90;;;1.70;;
56239;SDS011;42154;51.992;5.896;2023-02-27T05:38:44;3.70;;;1.77;;
56239;SDS011;42154;51.992;5.896;2023-02-27T05:41:17;3.03;;;1.25;;
56239;SDS011;42154;51.992;5.896;2023-02-27T05:43:50;2.65;;;1.55;;
56239;SDS011;42154;51.992;5.896;2023-02-27T05:46:21;6.90;;;2.25;;
56239;SDS011;42154;51.992;5.896;2023-02-27T05:48:54;4.40;;;1.60;;
56239;SDS011;42154;51.992;5.896;2023-02-27T05:51:23;4.47;;;1.70;;
56239;SDS011;42154;51.992;5.896;2023-02-27T05:53:56;5.45;;;1.35;;
56239;SDS011;42154;51.992;5.896;2023-02-27T05:56:27;4.70;;;1.60;;
56239;SDS011;42154;51.992;5.896;2023-02-27T05:58:57;3.72;;;1.80;;
56239;SDS011;42154;51.992;5.896;2023-02-27T06:01:29;6.07;;;1.95;;
56239;SDS011;42154;51.992;5.896;2023-02-27T06:03:54;3.78;;;1.58;;
56239;SDS011;42154;51.992;5.896;2023-02-27T06:06:20;3.45;;;1.58;;
56239;SDS011;42154;51.992;5.896;2023-02-27T06:08:47;5.53;;;1.65;;
56239;SDS011;42154;51.992;5.896;2023-02-27T06:11:12;4.97;;;1.80;;
56239;SDS011;42154;51.992;5.896;2023-02-27T06:13:38;8.75;;;2.13;;
56239;SDS011;42154;51.992;5.896;2023-02-27T06:16:04;4.65;;;2.00;;
56239;SDS011;42154;51.992;5.896;2023-02-27T06:18:33;6.88;;;2.03;;
56239;SDS011;42154;51.992;5.896;2023-02-27T06:20:59;6.72;;;2.08;;
56239;SDS011;42154;51.992;5.896;2023-02-27T06:23:24;4.07;;;2.00;;
56239;SDS011;42154;51.992;5.896;2023-02-27T06:25:50;3.33;;;1.95;;
56239;SDS011;42154;51.992;5.896;2023-02-27T06:28:16;5.57;;;1.88;;
56239;SDS011;42154;51.992;5.896;2023-02-27T06:30:42;7.50;;;2.05;;
56239;SDS011;42154;51.992;5.896;2023-02-27T06:33:07;7.53;;;2.55;;
56239;SDS011;42154;51.992;5.896;2023-02-27T06:35:33;5.85;;;1.85;;
56239;SDS011;42154;51.992;5.896;2023-02-27T06:37:59;4.45;;;2.08;;
56239;SDS011;42154;51.992;5.896;2023-02-27T06:40:25;3.78;;;2.15;;
56239;SDS011;42154;51.992;5.896;2023-02-27T06:42:51;6.82;;;2.10;;
56239;SDS011;42154;51.992;5.896;2023-02-27T06:45:17;2.85;;;2.00;;
56239;SDS011;42154;51.992;5.896;2023-02-27T06:47:43;4.63;;;1.75;;
56239;SDS011;42154;51.992;5.896;2023-02-27T06:50:13;5.72;;;2.30;;
56239;SDS011;42154;51.992;5.896;2023-02-27T06:52:39;4.50;;;1.47;;
56239;SDS011;42154;51.992;5.896;2023-02-27T06:55:06;7.72;;;2.30;;
56239;SDS011;42154;51.992;5.896;2023-02-27T06:57:33;7.45;;;2.67;;
56239;SDS011;42154;51.992;5.896;2023-02-27T06:59:58;3.53;;;1.90;;
56239;SDS011;42154;51.992;5.896;2023-02-27T07:02:24;7.88;;;2.55;;
56239;SDS011;42154;51.992;5.896;2023-02-27T07:04:50;3.42;;;1.98;;
56239;SDS011;42154;51.992;5.896;2023-02-27T07:07:17;5.03;;;2.47;;
56239;SDS011;42154;51.992;5.896;2023-02-27T07:09:43;7.30;;;2.60;;
56239;SDS011;42154;51.992;5.896;2023-02-27T07:12:09;5.03;;;2.40;;
56239;SDS011;42154;51.992;5.896;2023-02-27T07:14:35;5.90;;;2.63;;
56239;SDS011;42154;51.992;5.896;2023-02-27T07:17:00;7.78;;;2.85;;
56239;SDS011;42154;51.992;5.896;2023-02-27T07:19:30;4.07;;;2.13;;
56239;SDS011;42154;51.992;5.896;2023-02-27T07:21:57;6.60;;;2.88;;
56239;SDS011;42154;51.992;5.896;2023-02-27T07:24:24;6.20;;;2.70;;
56239;SDS011;42154;51.992;5.896;2023-02-27T07:26:50;5.90;;;2.72;;
56239;SDS011;42154;51.992;5.896;2023-02-27T07:29:15;4.68;;;2.03;;
56239;SDS011;42154;51.992;5.896;2023-02-27T07:31:41;4.25;;;2.30;;
56239;SDS011;42154;51.992;5.896;2023-02-27T07:34:07;5.15;;;2.30;;
56239;SDS011;42154;51.992;5.896;2023-02-27T07:36:36;5.97;;;2.33;;
56239;SDS011;42154;51.992;5.896;2023-02-27T07:39:02;5.22;;;1.90;;
56239;SDS011;42154;51.992;5.896;2023-02-27T07:41:29;4.97;;;2.28;;
56239;SDS011;42154;51.992;5.896;2023-02-27T07:43:57;6.53;;;2.20;;
56239;SDS011;42154;51.992;5.896;2023-02-27T07:46:23;3.75;;;1.85;;
56239;SDS011;42154;51.992;5.896;2023-02-27T07:48:51;5.97;;;2.60;;
56239;SDS011;42154;51.992;5.896;2023-02-27T07:51:17;5.40;;;2.42;;
56239;SDS011;42154;51.992;5.896;2023-02-27T07:53:43;4.53;;;2.53;;
56239;SDS011;42154;51.992;5.896;2023-02-27T07:56:09;4.78;;;2.60;;
56239;SDS011;42154;51.992;5.896;2023-02-27T07:58:35;6.75;;;2.47;;
56239;SDS011;42154;51.992;5.896;2023-02-27T08:01:00;4.80;;;2.10;;
56239;SDS011;42154;51.992;5.896;2023-02-27T08:03:26;5.95;;;2.38;;
56239;SDS011;42154;51.992;5.896;2023-02-27T08:05:52;4.00;;;2.30;;
56239;SDS011;42154;51.992;5.896;2023-02-27T08:08:18;9.02;;;2.67;;
56239;SDS011;42154;51.992;5.896;2023-02-27T08:10:43;8.60;;;2.60;;
56239;SDS011;42154;51.992;5.896;2023-02-27T08:13:09;5.60;;;2.00;;
56239;SDS011;42154;51.992;5.896;2023-02-27T08:15:35;6.13;;;2.30;;
56239;SDS011;42154;51.992;5.896;2023-02-27T08:18:01;6.80;;;2.70;;
56239;SDS011;42154;51.992;5.896;2023-02-27T08:20:26;4.60;;;2.28;;
56239;SDS011;42154;51.992;5.896;2023-02-27T08:22:52;8.00;;;2.30;;
56239;SDS011;42154;51.992;5.896;2023-02-27T08:25:18;7.13;;;2.00;;
56239;SDS011;42154;51.992;5.896;2023-02-27T08:27:44;6.13;;;2.20;;
56239;SDS011;42154;51.992;5.896;2023-02-27T08:30:10;5.60;;;2.03;;
56239;SDS011;42154;51.992;5.896;2023-02-27T08:32:36;5.40;;;1.80;;
56239;SDS011;42154;51.992;5.896;2023-02-27T08:35:03;4.82;;;2.13;;
56239;SDS011;42154;51.992;5.896;2023-02-27T08:37:29;6.43;;;1.83;;
56239;SDS011;42154;51.992;5.896;2023-02-27T08:39:55;5.20;;;1.80;;
56239;SDS011;42154;51.992;5.896;2023-02-27T08:42:21;7.95;;;1.70;;
56239;SDS011;42154;51.992;5.896;2023-02-27T08:44:47;5.18;;;1.92;;
56239;SDS011;42154;51.992;5.896;2023-02-27T08:47:14;8.90;;;2.30;;
56239;SDS011;42154;51.992;5.896;2023-02-27T08:49:41;4.95;;;1.80;;
56239;SDS011;42154;51.992;5.896;2023-02-27T08:52:07;3.15;;;1.40;;
56239;SDS011;42154;51.992;5.896;2023-02-27T08:54:34;3.47;;;1.60;;
56239;SDS011;42154;51.992;5.896;2023-02-27T08:57:01;2.75;;;1.30;;
56239;SDS011;42154;51.992;5.896;2023-02-27T08:59:28;4.00;;;1.63;;
56239;SDS011;42154;51.992;5.896;2023-02-27T09:01:54;3.58;;;1.63;;
56239;SDS011;42154;51.992;5.896;2023-02-27T09:04:20;3.75;;;1.45;;
56239;SDS011;42154;51.992;5.896;2023-02-27T09:06:46;7.88;;;1.80;;
56239;SDS011;42154;51.992;5.896;2023-02-27T09:09:12;6.80;;;1.60;;
56239;SDS011;42154;51.992;5.896;2023-02-27T09:11:38;3.53;;;1.25;;
56239;SDS011;42154;51.992;5.896;2023-02-27T09:14:04;3.88;;;1.40;;
56239;SDS011;42154;51.992;5.896;2023-02-27T09:16:30;2.05;;;1.15;;
56239;SDS011;42154;51.992;5.896;2023-02-27T09:18:56;3.90;;;1.05;;
56239;SDS011;42154;51.992;5.896;2023-02-27T09:21:22;5.53;;;1.60;;
56239;SDS011;42154;51.992;5.896;2023-02-27T09:23:49;4.30;;;1.35;;
56239;SDS011;42154;51.992;5.896;2023-02-27T09:26:15;3.10;;;1.42;;
56239;SDS011;42154;51.992;5.896;2023-02-27T09:28:41;4.22;;;1.48;;
56239;SDS011;42154;51.992;5.896;2023-02-27T09:31:08;3.45;;;1.20;;
56239;SDS011;42154;51.992;5.896;2023-02-27T09:33:35;5.75;;;1.20;;
56239;SDS011;42154;51.992;5.896;2023-02-27T09:36:01;3.75;;;1.00;;
56239;SDS011;42154;51.992;5.896;2023-02-27T09:38:30;4.28;;;1.60;;
56239;SDS011;42154;51.992;5.896;2023-02-27T09:40:56;3.90;;;1.70;;
56239;SDS011;42154;51.992;5.896;2023-02-27T09:43:28;3.45;;;1.05;;
56239;SDS011;42154;51.992;5.896;2023-02-27T09:46:08;4.40;;;1.10;;
56239;SDS011;42154;51.992;5.896;2023-02-27T09:48:42;5.05;;;1.40;;
56239;SDS011;42154;51.992;5.896;2023-02-27T09:51:14;5.38;;;1.23;;
56239;SDS011;42154;51.992;5.896;2023-02-27T09:53:43;5.00;;;1.00;;
56239;SDS011;42154;51.992;5.896;2023-02-27T09:58:50;5.35;;;1.25;;
56239;SDS011;42154;51.992;5.896;2023-02-27T10:01:45;6.60;;;1.00;;
56239;SDS011;42154;51.992;5.896;2023-02-27T10:07:11;4.78;;;1.17;;
56239;SDS011;42154;51.992;5.896;2023-02-27T10:12:40;3.35;;;0.80;;
56239;SDS011;42154;51.992;5.896;2023-02-27T10:18:01;2.92;;;0.98;;
56239;SDS011;42154;51.992;5.896;2023-02-27T10:20:36;1.60;;;0.80;;
56239;SDS011;42154;51.992;5.896;2023-02-27T10:23:11;2.70;;;1.05;;
56239;SDS011;42154;51.992;5.896;2023-02-27T10:25:42;3.65;;;1.20;;
56239;SDS011;42154;51.992;5.896;2023-02-27T10:28:11;1.60;;;0.80;;
56239;SDS011;42154;51.992;5.896;2023-02-27T10:30:40;1.92;;;0.90;;
56239;SDS011;42154;51.992;5.896;2023-02-27T10:33:11;3.72;;;0.90;;
56239;SDS011;42154;51.992;5.896;2023-02-27T10:35:58;2.95;;;0.88;;
56239;SDS011;42154;51.992;5.896;2023-02-27T10:40:56;2.60;;;0.93;;
56239;SDS011;42154;51.992;5.896;2023-02-27T10:43:24;5.55;;;1.30;;
56239;SDS011;42154;51.992;5.896;2023-02-27T10:45:51;3.53;;;1.20;;
56239;SDS011;42154;51.992;5.896;2023-02-27T10:48:17;5.20;;;1.17;;
56239;SDS011;42154;51.992;5.896;2023-02-27T10:50:45;2.42;;;0.98;;
56239;SDS011;42154;51.992;5.896;2023-02-27T10:53:23;3.70;;;1.17;;
56239;SDS011;42154;51.992;5.896;2023-02-27T10:55:57;4.75;;;0.90;;
56239;SDS011;42154;51.992;5.896;2023-02-27T10:58:25;2.50;;;0.80;;
56239;SDS011;42154;51.992;5.896;2023-02-27T11:00:58;2.28;;;0.95;;
56239;SDS011;42154;51.992;5.896;2023-02-27T11:03:26;1.63;;;0.73;;
56239;SDS011;42154;51.992;5.896;2023-02-27T11:06:29;2.50;;;0.80;;
56239;SDS011;42154;51.992;5.896;2023-02-27T11:11:47;5.85;;;1.35;;
56239;SDS011;42154;51.992;5.896;2023-02-27T11:16:50;2.40;;;0.90;;
56239;SDS011;42154;51.992;5.896;2023-02-27T11:19:22;1.45;;;0.75;;
56239;SDS011;42154;51.992;5.896;2023-02-27T11:22:00;3.08;;;0.70;;
56239;SDS011;42154;51.992;5.896;2023-02-27T11:24:26;1.88;;;0.80;;
56239;SDS011;42154;51.992;5.896;2023-02-27T11:26:57;1.10;;;0.50;;
56239;SDS011;42154;51.992;5.896;2023-02-27T11:32:04;1.23;;;0.40;;
56239;SDS011;42154;51.992;5.896;2023-02-27T11:34:38;1.48;;;0.40;;
56239;SDS011;42154;51.992;5.896;2023-02-27T11:37:29;4.47;;;0.55;;
56239;SDS011;42154;51.992;5.896;2023-02-27T11:42:40;3.35;;;0.60;;
56239;SDS011;42154;51.992;5.896;2023-02-27T11:45:28;2.83;;;0.47;;
56239;SDS011;42154;51.992;5.896;2023-02-27T11:48:09;1.58;;;0.50;;
56239;SDS011;42154;51.992;5.896;2023-02-27T11:56:14;1.75;;;0.50;;
56239;SDS011;42154;51.992;5.896;2023-02-27T11:58:54;3.22;;;0.50;;
56239;SDS011;42154;51.992;5.896;2023-02-27T12:06:33;4.00;;;0.70;;
56239;SDS011;42154;51.992;5.896;2023-02-27T12:09:05;1.20;;;0.50;;
56239;SDS011;42154;51.992;5.896;2023-02-27T12:12:02;2.22;;;0.60;;
56239;SDS011;42154;51.992;5.896;2023-02-27T12:17:10;1.70;;;0.60;;
56239;SDS011;42154;51.992;5.896;2023-02-27T12:22:50;3.28;;;0.63;;
56239;SDS011;42154;51.992;5.896;2023-02-27T12:25:26;3.08;;;0.90;;
56239;SDS011;42154;51.992;5.896;2023-02-27T12:28:05;2.38;;;0.70;;
56239;SDS011;42154;51.992;5.896;2023-02-27T12:30:42;3.25;;;0.75;;
56239;SDS011;42154;51.992;5.896;2023-02-27T12:33:31;3.90;;;1.00;;
56239;SDS011;42154;51.992;5.896;2023-02-27T12:36:09;4.60;;;1.20;;
56239;SDS011;42154;51.992;5.896;2023-02-27T12:38:37;2.90;;;0.85;;
56239;SDS011;42154;51.992;5.896;2023-02-27T12:49:01;1.75;;;0.75;;
56239;SDS011;42154;51.992;5.896;2023-02-27T13:00:02;2.58;;;0.85;;
56239;SDS011;42154;51.992;5.896;2023-02-27T13:03:03;3.35;;;1.00;;
56239;SDS011;42154;51.992;5.896;2023-02-27T13:05:56;1.92;;;0.80;;
56239;SDS011;42154;51.992;5.896;2023-02-27T13:17:24;3.58;;;1.13;;
56239;SDS011;42154;51.992;5.896;2023-02-27T13:20:04;4.97;;;1.25;;
56239;SDS011;42154;51.992;5.896;2023-02-27T13:22:55;3.80;;;1.25;;
56239;SDS011;42154;51.992;5.896;2023-02-27T13:25:28;2.85;;;1.05;;
56239;SDS011;42154;51.992;5.896;2023-02-27T13:27:59;3.13;;;0.88;;
56239;SDS011;42154;51.992;5.896;2023-02-27T13:30:32;2.72;;;0.80;;
56239;SDS011;42154;51.992;5.896;2023-02-27T13:40:56;3.17;;;1.00;;
56239;SDS011;42154;51.992;5.896;2023-02-27T13:43:42;3.95;;;1.15;;
56239;SDS011;42154;51.992;5.896;2023-02-27T13:46:24;4.05;;;1.10;;
56239;SDS011;42154;51.992;5.896;2023-02-27T13:51:46;4.93;;;0.98;;
56239;SDS011;42154;51.992;5.896;2023-02-27T13:56:41;2.13;;;1.00;;
56239;SDS011;42154;51.992;5.896;2023-02-27T13:59:10;3.05;;;0.90;;
56239;SDS011;42154;51.992;5.896;2023-02-27T14:01:58;3.67;;;1.30;;
56239;SDS011;42154;51.992;5.896;2023-02-27T14:04:34;4.20;;;1.10;;
56239;SDS011;42154;51.992;5.896;2023-02-27T14:07:10;2.00;;;1.00;;
56239;SDS011;42154;51.992;5.896;2023-02-27T14:09:44;3.50;;;1.10;;
56239;SDS011;42154;51.992;5.896;2023-02-27T14:15:12;5.40;;;1.02;;
56239;SDS011;42154;51.992;5.896;2023-02-27T14:17:46;5.45;;;1.10;;
56239;SDS011;42154;51.992;5.896;2023-02-27T14:25:54;4.22;;;1.20;;
56239;SDS011;42154;51.992;5.896;2023-02-27T14:28:30;2.60;;;0.98;;
56239;SDS011;42154;51.992;5.896;2023-02-27T14:31:05;1.48;;;0.80;;
56239;SDS011;42154;51.992;5.896;2023-02-27T14:33:41;2.42;;;1.00;;
56239;SDS011;42154;51.992;5.896;2023-02-27T14:36:22;4.15;;;0.98;;
56239;SDS011;42154;51.992;5.896;2023-02-27T14:38:52;2.20;;;0.82;;
56239;SDS011;42154;51.992;5.896;2023-02-27T14:41:37;3.33;;;1.00;;
56239;SDS011;42154;51.992;5.896;2023-02-27T14:44:23;2.92;;;1.02;;
56239;SDS011;42154;51.992;5.896;2023-02-27T14:46:52;4.20;;;0.90;;
56239;SDS011;42154;51.992;5.896;2023-02-27T14:49:29;1.65;;;0.93;;
56239;SDS011;42154;51.992;5.896;2023-02-27T14:52:09;2.78;;;1.10;;
56239;SDS011;42154;51.992;5.896;2023-02-27T15:00:38;3.22;;;0.95;;
56239;SDS011;42154;51.992;5.896;2023-02-27T15:03:23;5.05;;;1.30;;
56239;SDS011;42154;51.992;5.896;2023-02-27T15:05:51;2.42;;;1.10;;
56239;SDS011;42154;51.992;5.896;2023-02-27T15:08:30;4.93;;;1.38;;
56239;SDS011;42154;51.992;5.896;2023-02-27T15:10:57;3.00;;;1.10;;
56239;SDS011;42154;51.992;5.896;2023-02-27T15:13:27;2.90;;;1.10;;
56239;SDS011;42154;51.992;5.896;2023-02-27T15:18:59;2.45;;;1.08;;
56239;SDS011;42154;51.992;5.896;2023-02-27T15:21:37;3.47;;;1.65;;
56239;SDS011;42154;51.992;5.896;2023-02-27T15:24:05;4.10;;;1.30;;
56239;SDS011;42154;51.992;5.896;2023-02-27T15:26:38;4.20;;;1.20;;
56239;SDS011;42154;51.992;5.896;2023-02-27T15:29:06;2.78;;;1.00;;
56239;SDS011;42154;51.992;5.896;2023-02-27T15:31:41;2.90;;;1.00;;
56239;SDS011;42154;51.992;5.896;2023-02-27T15:34:09;3.20;;;1.30;;
56239;SDS011;42154;51.992;5.896;2023-02-27T15:36:38;2.53;;;0.90;;
56239;SDS011;42154;51.992;5.896;2023-02-27T15:41:39;2.42;;;0.95;;
56239;SDS011;42154;51.992;5.896;2023-02-27T15:44:06;4.55;;;1.17;;
56239;SDS011;42154;51.992;5.896;2023-02-27T15:46:31;1.67;;;1.08;;
56239;SDS011;42154;51.992;5.896;2023-02-27T15:48:57;1.90;;;1.02;;
56239;SDS011;42154;51.992;5.896;2023-02-27T15:51:24;1.83;;;1.05;;
56239;SDS011;42154;51.992;5.896;2023-02-27T15:53:53;3.95;;;0.98;;
56239;SDS011;42154;51.992;5.896;2023-02-27T15:56:22;2.75;;;1.30;;
56239;SDS011;42154;51.992;5.896;2023-02-27T15:58:57;2.35;;;1.20;;
56239;SDS011;42154;51.992;5.896;2023-02-27T16:01:25;2.33;;;1.00;;
56239;SDS011;42154;51.992;5.896;2023-02-27T16:03:55;2.80;;;0.93;;
56239;SDS011;42154;51.992;5.896;2023-02-27T16:06:35;2.30;;;1.05;;
56239;SDS011;42154;51.992;5.896;2023-02-27T16:09:04;1.30;;;0.80;;
56239;SDS011;42154;51.992;5.896;2023-02-27T16:11:32;3.03;;;1.10;;
56239;SDS011;42154;51.992;5.896;2023-02-27T16:14:01;2.08;;;1.00;;
56239;SDS011;42154;51.992;5.896;2023-02-27T16:16:31;3.45;;;1.15;;
56239;SDS011;42154;51.992;5.896;2023-02-27T16:19:23;1.70;;;1.15;;
56239;SDS011;42154;51.992;5.896;2023-02-27T16:24:31;3.38;;;1.20;;
56239;SDS011;42154;51.992;5.896;2023-02-27T16:26:57;2.83;;;1.10;;
56239;SDS011;42154;51.992;5.896;2023-02-27T16:32:13;2.67;;;1.02;;
56239;SDS011;42154;51.992;5.896;2023-02-27T16:34:47;2.70;;;1.10;;
56239;SDS011;42154;51.992;5.896;2023-02-27T16:37:17;2.05;;;1.00;;
56239;SDS011;42154;51.992;5.896;2023-02-27T16:39:51;2.60;;;1.42;;
56239;SDS011;42154;51.992;5.896;2023-02-27T16:42:18;4.45;;;1.30;;
56239;SDS011;42154;51.992;5.896;2023-02-27T16:44:44;3.78;;;0.95;;
56239;SDS011;42154;51.992;5.896;2023-02-27T16:47:10;5.03;;;1.33;;
56239;SDS011;42154;51.992;5.896;2023-02-27T16:49:36;2.58;;;1.20;;
56239;SDS011;42154;51.992;5.896;2023-02-27T16:52:03;2.08;;;1.10;;
56239;SDS011;42154;51.992;5.896;2023-02-27T16:54:30;2.63;;;1.17;;
56239;SDS011;42154;51.992;5.896;2023-02-27T16:56:55;2.03;;;0.90;;
56239;SDS011;42154;51.992;5.896;2023-02-27T17:01:53;2.67;;;1.25;;
56239;SDS011;42154;51.992;5.896;2023-02-27T17:04:19;3.80;;;1.30;;
56239;SDS011;42154;51.992;5.896;2023-02-27T17:06:45;1.83;;;1.00;;
56239;SDS011;42154;51.992;5.896;2023-02-27T17:09:11;3.60;;;1.38;;
56239;SDS011;42154;51.992;5.896;2023-02-27T17:11:37;2.03;;;0.93;;
56239;SDS011;42154;51.992;5.896;2023-02-27T17:14:02;2.33;;;1.00;;
56239;SDS011;42154;51.992;5.896;2023-02-27T17:16:28;2.47;;;1.25;;
56239;SDS011;42154;51.992;5.896;2023-02-27T17:18:54;1.55;;;0.70;;
56239;SDS011;42154;51.992;5.896;2023-02-27T17:21:19;3.88;;;1.20;;
56239;SDS011;42154;51.992;5.896;2023-02-27T17:23:45;2.90;;;1.25;;
56239;SDS011;42154;51.992;5.896;2023-02-27T17:26:11;3.22;;;1.20;;
56239;SDS011;42154;51.992;5.896;2023-02-27T17:28:37;5.28;;;1.35;;
56239;SDS011;42154;51.992;5.896;2023-02-27T17:31:07;2.22;;;0.90;;
56239;SDS011;42154;51.992;5.896;2023-02-27T17:33:33;1.17;;;0.82;;
56239;SDS011;42154;51.992;5.896;2023-02-27T17:36:03;2.92;;;1.40;;
56239;SDS011;42154;51.992;5.896;2023-02-27T17:40:56;2.28;;;1.10;;
56239;SDS011;42154;51.992;5.896;2023-02-27T17:43:22;2.25;;;1.08;;
56239;SDS011;42154;51.992;5.896;2023-02-27T17:45:48;3.17;;;1.00;;
56239;SDS011;42154;51.992;5.896;2023-02-27T17:48:14;3.63;;;1.10;;
56239;SDS011;42154;51.992;5.896;2023-02-27T17:50:39;3.30;;;1.30;;
56239;SDS011;42154;51.992;5.896;2023-02-27T17:53:05;3.22;;;1.25;;
56239;SDS011;42154;51.992;5.896;2023-02-27T17:55:33;3.78;;;1.15;;
56239;SDS011;42154;51.992;5.896;2023-02-27T17:57:59;1.60;;;0.88;;
56239;SDS011;42154;51.992;5.896;2023-02-27T18:00:25;4.55;;;2.17;;
56239;SDS011;42154;51.992;5.896;2023-02-27T18:02:51;4.30;;;1.45;;
56239;SDS011;42154;51.992;5.896;2023-02-27T18:05:17;3.72;;;1.50;;
56239;SDS011;42154;51.992;5.896;2023-02-27T18:07:42;4.38;;;1.73;;
56239;SDS011;42154;51.992;5.896;2023-02-27T18:10:08;2.30;;;1.50;;
56239;SDS011;42154;51.992;5.896;2023-02-27T18:12:35;2.00;;;1.40;;